createdAt,value
2023-04-23T00:01:04.151Z,18.30
2023-04-23T00:03:38.064Z,18.20
2023-04-23T00:06:17.694Z,18.00
2023-04-23T00:08:50.143Z,17.80
2023-04-23T00:11:22.811Z,17.70
2023-04-23T00:13:54.754Z,17.90
2023-04-23T00:16:26.634Z,18.10
2023-04-23T00:18:57.985Z,18.00
2023-04-23T00:21:29.209Z,18.00
2023-04-23T00:24:00.889Z,17.90
2023-04-23T00:26:32.162Z,17.90
2023-04-23T00:29:06.410Z,17.90
2023-04-23T00:31:40.519Z,17.60
2023-04-23T00:34:13.585Z,17.80
2023-04-23T00:36:45.076Z,17.80
2023-04-23T00:39:16.402Z,17.70
2023-04-23T00:41:48.272Z,17.70
2023-04-23T00:44:20.161Z,17.60
2023-04-23T00:46:52.153Z,17.60
2023-04-23T00:49:25.530Z,17.50
2023-04-23T00:51:57.096Z,17.40
2023-04-23T00:54:48.283Z,17.50
2023-04-23T00:57:21.080Z,17.50
2023-04-23T01:00:12.362Z,17.60
2023-04-23T01:02:45.724Z,17.70
2023-04-23T01:05:17.987Z,17.40
2023-04-23T01:07:50.061Z,17.20
2023-04-23T01:10:21.700Z,17.20
2023-04-23T01:12:54.276Z,17.40
2023-04-23T01:15:25.672Z,17.60
2023-04-23T01:18:17.818Z,17.80
2023-04-23T01:20:49.179Z,17.60
2023-04-23T01:23:20.954Z,17.90
2023-04-23T01:25:52.564Z,17.90
2023-04-23T01:28:24.878Z,17.90
2023-04-23T01:31:16.173Z,17.60
2023-04-23T01:33:48.299Z,17.10
2023-04-23T01:36:20.503Z,17.30
2023-04-23T01:38:51.949Z,17.30
2023-04-23T01:41:46.852Z,17.30
2023-04-23T01:44:18.926Z,17.30
2023-04-23T01:46:50.530Z,17.20
2023-04-23T01:49:22.156Z,17.10
2023-04-23T01:51:54.736Z,17.00
2023-04-23T01:54:26.992Z,16.50
2023-04-23T01:57:28.017Z,16.30
2023-04-23T02:00:11.614Z,16.30
2023-04-23T02:03:07.254Z,16.80
2023-04-23T02:05:58.899Z,17.10
2023-04-23T02:08:37.938Z,17.30
2023-04-23T02:11:11.344Z,17.30
2023-04-23T02:13:43.816Z,17.40
2023-04-23T02:16:15.845Z,17.40
2023-04-23T02:18:52.202Z,17.40
2023-04-23T02:21:28.663Z,17.20
2023-04-23T02:24:05.477Z,17.20
2023-04-23T02:26:37.612Z,17.10
2023-04-23T02:29:16.874Z,17.20
2023-04-23T02:31:51.718Z,17.10
2023-04-23T02:34:23.846Z,17.30
2023-04-23T02:36:57.865Z,17.60
2023-04-23T02:39:50.828Z,17.60
2023-04-23T02:42:23.063Z,17.90
2023-04-23T02:44:55.463Z,17.90
2023-04-23T02:47:29.674Z,17.70
2023-04-23T02:50:04.451Z,17.70
2023-04-23T02:52:55.664Z,17.80
2023-04-23T02:55:46.909Z,17.70
2023-04-23T02:58:26.833Z,17.60
2023-04-23T03:01:01.026Z,17.30
2023-04-23T03:03:34.954Z,17.40
2023-04-23T03:06:09.463Z,17.70
2023-04-23T03:09:00.514Z,18.00
2023-04-23T03:11:35.702Z,17.80
2023-04-23T03:14:08.123Z,17.20
2023-04-23T03:17:01.132Z,17.20
2023-04-23T03:19:35.170Z,17.70
2023-04-23T03:22:07.782Z,18.10
2023-04-23T03:24:41.369Z,17.80
2023-04-23T03:27:12.908Z,17.70
2023-04-23T03:29:48.165Z,17.50
2023-04-23T03:32:19.512Z,17.50
2023-04-23T03:34:50.915Z,17.90
2023-04-23T03:37:42.819Z,18.00
2023-04-23T03:40:14.733Z,18.10
2023-04-23T03:42:49.675Z,18.20
2023-04-23T03:45:33.732Z,18.20
2023-04-23T03:48:06.858Z,18.40
2023-04-23T03:50:42.617Z,18.50
2023-04-23T03:53:27.686Z,18.40
2023-04-23T03:56:21.649Z,17.90
2023-04-23T03:59:16.209Z,17.70
2023-04-23T04:01:55.711Z,17.50
2023-04-23T04:04:33.188Z,17.30
2023-04-23T04:07:05.743Z,17.60
2023-04-23T04:09:56.745Z,18.10
2023-04-23T04:12:30.470Z,18.30
2023-04-23T04:15:22.462Z,18.20
2023-04-23T04:17:53.761Z,17.90
2023-04-23T04:20:27.325Z,17.60
2023-04-23T04:23:03.410Z,17.70
2023-04-23T04:25:34.813Z,18.00
2023-04-23T04:28:07.806Z,18.40
2023-04-23T04:30:43.706Z,18.50
2023-04-23T04:33:37.670Z,18.50
2023-04-23T04:36:13.520Z,18.40
2023-04-23T04:38:48.273Z,18.20
2023-04-23T04:41:21.630Z,18.60
2023-04-23T04:43:55.368Z,18.30
2023-04-23T04:46:33.682Z,18.20
2023-04-23T04:49:44.531Z,18.40
2023-04-23T04:52:37.991Z,18.60
2023-04-23T04:55:13.273Z,18.80
2023-04-23T05:00:31.046Z,19.30
2023-04-23T05:03:02.873Z,19.30
2023-04-23T05:05:36.703Z,19.30
2023-04-23T05:08:10.476Z,19.20
2023-04-23T05:10:43.000Z,19.00
2023-04-23T05:13:22.470Z,19.10
2023-04-23T05:15:54.383Z,19.10
2023-04-23T05:18:28.535Z,19.10
2023-04-23T05:21:03.463Z,19.20
2023-04-23T05:23:37.800Z,19.40
2023-04-23T05:26:15.972Z,19.40
2023-04-23T05:28:47.367Z,19.50
2023-04-23T05:31:20.430Z,19.20
2023-04-23T05:33:51.729Z,19.40
2023-04-23T05:36:23.420Z,19.60
2023-04-23T05:38:56.089Z,19.60
2023-04-23T05:41:31.528Z,19.60
2023-04-23T05:44:04.336Z,19.50
2023-04-23T05:46:37.195Z,19.50
2023-04-23T05:49:31.844Z,19.70
2023-04-23T05:52:07.079Z,19.60
2023-04-23T05:54:38.722Z,19.60
2023-04-23T05:57:11.592Z,19.70
2023-04-23T06:00:02.474Z,19.60
2023-04-23T06:02:43.833Z,19.20
2023-04-23T06:05:16.194Z,19.30
2023-04-23T06:07:52.533Z,19.50
2023-04-23T06:10:47.203Z,19.60
2023-04-23T06:13:43.696Z,19.70
2023-04-23T06:16:16.603Z,19.60
2023-04-23T06:18:47.868Z,19.80
2023-04-23T06:21:22.737Z,19.80
2023-04-23T06:24:34.611Z,20.00
2023-04-23T06:27:07.372Z,20.20
2023-04-23T06:29:58.933Z,19.90
2023-04-23T06:32:32.275Z,19.90
2023-04-23T06:35:04.114Z,19.70
2023-04-23T06:37:36.099Z,19.90
2023-04-23T06:40:08.292Z,20.00
2023-04-23T06:42:43.759Z,19.80
2023-04-23T06:45:29.302Z,19.90
2023-04-23T06:48:04.365Z,20.00
2023-04-23T06:50:55.339Z,19.90
2023-04-23T06:53:26.871Z,19.90
2023-04-23T06:55:58.234Z,19.80
2023-04-23T06:58:32.907Z,19.90
2023-04-23T07:01:11.807Z,19.90
2023-04-23T07:03:45.780Z,19.90
2023-04-23T07:06:19.775Z,20.00
2023-04-23T07:08:52.122Z,20.00
2023-04-23T07:11:23.486Z,19.90
2023-04-23T07:13:55.242Z,19.40
2023-04-23T07:16:32.389Z,19.30
2023-04-23T07:19:06.528Z,19.60
2023-04-23T07:21:43.734Z,19.60
2023-04-23T07:24:15.246Z,19.50
2023-04-23T07:26:47.666Z,19.60
2023-04-23T07:29:19.303Z,19.50
2023-04-23T07:31:54.613Z,19.50
2023-04-23T07:34:29.495Z,19.60
2023-04-23T07:37:02.563Z,19.70
2023-04-23T07:39:34.754Z,19.60
2023-04-23T07:42:11.683Z,19.40
2023-04-23T07:44:46.311Z,18.90
2023-04-23T07:47:18.619Z,18.80
2023-04-23T07:49:55.818Z,18.70
2023-04-23T07:52:27.061Z,18.40
2023-04-23T07:54:58.410Z,18.20
2023-04-23T07:57:30.387Z,18.10
2023-04-23T08:00:02.932Z,18.10
2023-04-23T08:02:45.427Z,18.10
2023-04-23T08:05:39.105Z,18.10
2023-04-23T08:08:13.684Z,18.00
2023-04-23T08:10:45.301Z,18.10
2023-04-23T08:16:30.896Z,18.20
2023-04-23T08:19:05.918Z,18.50
2023-04-23T08:21:44.537Z,18.30
2023-04-23T08:24:42.626Z,18.10
2023-04-23T08:27:14.771Z,18.10
2023-04-23T08:29:46.435Z,18.10
2023-04-23T08:32:20.144Z,18.00
2023-04-23T08:35:15.740Z,17.90
2023-04-23T08:37:51.801Z,17.90
2023-04-23T08:40:23.435Z,18.00
2023-04-23T08:43:04.576Z,17.90
2023-04-23T08:45:43.387Z,17.90
2023-04-23T08:48:17.492Z,18.00
2023-04-23T08:50:49.326Z,17.90
2023-04-23T08:53:24.115Z,17.90
2023-04-23T08:56:17.532Z,18.00
2023-04-23T08:58:49.191Z,18.20
2023-04-23T09:01:22.116Z,18.00
2023-04-23T09:03:58.907Z,17.90
2023-04-23T09:06:33.856Z,17.80
2023-04-23T09:09:06.425Z,17.80
2023-04-23T09:11:40.128Z,17.80
2023-04-23T09:14:12.155Z,17.70
2023-04-23T09:16:44.125Z,17.80
2023-04-23T09:19:35.160Z,17.90
2023-04-23T09:22:50.583Z,17.80
2023-04-23T09:25:41.847Z,17.70
2023-04-23T09:28:13.515Z,17.80
2023-04-23T09:30:50.542Z,17.60
2023-04-23T09:33:21.709Z,17.50
2023-04-23T09:35:54.218Z,17.50
2023-04-23T09:38:25.422Z,17.50
2023-04-23T09:40:57.289Z,17.30
2023-04-23T09:43:34.686Z,17.30
2023-04-23T09:46:06.231Z,17.30
2023-04-23T09:48:45.519Z,17.30
2023-04-23T09:51:20.616Z,17.50
2023-04-23T09:53:52.560Z,17.40
2023-04-23T09:56:23.691Z,17.50
2023-04-23T09:58:55.959Z,17.70
2023-04-23T10:01:53.083Z,17.30
2023-04-23T10:04:26.034Z,17.30
2023-04-23T10:07:17.906Z,17.40
2023-04-23T10:09:51.125Z,17.10
2023-04-23T10:12:54.120Z,16.90
2023-04-23T10:15:30.545Z,16.70
2023-04-23T10:21:11.578Z,16.70
2023-04-23T10:23:49.300Z,16.70
2023-04-23T10:26:26.241Z,16.80
2023-04-23T10:28:59.932Z,16.90
2023-04-23T10:31:35.769Z,16.70
2023-04-23T10:34:09.684Z,16.70
2023-04-23T10:36:43.342Z,16.70
2023-04-23T10:39:20.779Z,16.70
2023-04-23T10:41:59.350Z,16.80
2023-04-23T10:44:58.029Z,16.90
2023-04-23T10:47:35.829Z,16.80
2023-04-23T10:50:25.198Z,16.50
2023-04-23T10:53:27.734Z,16.50
2023-04-23T10:56:11.012Z,16.60
2023-04-23T10:58:55.211Z,16.60
2023-04-23T11:01:33.612Z,16.50
2023-04-23T11:04:30.692Z,16.40
2023-04-23T11:07:12.909Z,16.50
2023-04-23T11:09:54.229Z,16.70
2023-04-23T11:12:34.087Z,16.50
2023-04-23T11:15:27.289Z,16.50
2023-04-23T11:18:18.246Z,16.40
2023-04-23T11:20:52.879Z,16.20
2023-04-23T11:23:42.588Z,16.10
2023-04-23T11:26:17.879Z,16.00
2023-04-23T11:28:53.437Z,15.90
2023-04-23T11:31:28.607Z,15.90
2023-04-23T11:34:03.298Z,15.90
2023-04-23T11:36:35.034Z,16.20
2023-04-23T11:39:09.055Z,16.20
2023-04-23T11:41:42.046Z,16.20
2023-04-23T11:44:14.591Z,16.20
2023-04-23T11:46:45.916Z,16.10
2023-04-23T11:49:19.691Z,16.00
2023-04-23T11:51:54.982Z,16.00
2023-04-23T11:54:54.863Z,16.00
2023-04-23T11:57:29.307Z,16.00
2023-04-23T12:00:06.649Z,16.10
2023-04-23T12:02:59.915Z,16.20
2023-04-23T12:05:38.842Z,16.30
2023-04-23T12:08:19.781Z,16.40
2023-04-23T12:10:55.996Z,16.20
2023-04-23T12:13:31.860Z,15.90
2023-04-23T12:16:12.303Z,15.70
2023-04-23T12:18:56.746Z,15.60
2023-04-23T12:21:34.551Z,15.70
2023-04-23T12:24:32.226Z,15.70
2023-04-23T12:27:25.461Z,15.80
2023-04-23T12:30:07.124Z,15.70
2023-04-23T12:32:39.209Z,15.80
2023-04-23T12:35:13.062Z,15.70
2023-04-23T12:38:13.339Z,15.80
2023-04-23T12:40:47.842Z,15.80
2023-04-23T12:46:24.509Z,15.90
2023-04-23T12:52:04.193Z,15.70
2023-04-23T12:54:43.336Z,15.80
2023-04-23T12:57:46.949Z,15.80
2023-04-23T13:03:05.420Z,15.80
2023-04-23T13:05:38.714Z,15.60
2023-04-23T13:08:33.743Z,15.50
2023-04-23T13:11:13.003Z,15.40
2023-04-23T13:13:47.237Z,15.50
2023-04-23T13:16:43.241Z,15.50
2023-04-23T13:19:55.127Z,15.50
2023-04-23T13:22:31.100Z,15.70
2023-04-23T13:25:03.257Z,15.70
2023-04-23T13:27:34.573Z,15.50
2023-04-23T13:30:14.073Z,15.40
2023-04-23T13:33:29.966Z,15.70
2023-04-23T13:36:03.751Z,15.40
2023-04-23T13:38:36.543Z,15.70
2023-04-23T13:41:07.986Z,15.40
2023-04-23T13:43:39.613Z,15.40
2023-04-23T13:46:10.899Z,15.40
2023-04-23T13:48:43.586Z,15.60
2023-04-23T13:51:33.869Z,15.80
